Time;durP1;ratioP1;P1;durP2;ratioP2;P2;SDS_P1;SDS_P2;PMS_P1;PMS_P2;Temp;Humidity;BMP_temperature;BMP_pressure;BME280_temperature;BME280_humidity;BME280_pressure;Samples;Min_cycle;Max_cycle;Signal;HPM_P1;HPM_P2
2022/04/05 00:00:33;;;;;;;7.77;4.07;;;3.50;95.10;;;;;;5072203;28;20564;-64
2022/04/05 00:02:59;;;;;;;7.97;4.57;;;3.50;95.10;;;;;;5084362;28;20295;-65
2022/04/05 00:05:25;;;;;;;14.47;4.40;;;3.50;95.20;;;;;;5076164;28;20331;-64
2022/04/05 00:07:50;;;;;;;11.60;4.70;;;3.40;95.00;;;;;;5069403;28;20188;-66
2022/04/05 00:10:16;;;;;;;29.13;5.50;;;3.50;95.00;;;;;;5085330;28;20906;-65
2022/04/05 00:12:42;;;;;;;8.80;3.97;;;3.60;95.10;;;;;;5076000;28;20590;-64
2022/04/05 00:15:09;;;;;;;7.93;3.77;;;3.60;95.10;;;;;;5080814;28;20197;-65
2022/04/05 00:17:36;;;;;;;9.73;3.80;;;3.60;95.10;;;;;;5084583;28;20187;-65
2022/04/05 00:20:03;;;;;;;12.07;5.00;;;3.60;94.80;;;;;;5085357;28;20422;-66
2022/04/05 00:22:28;;;;;;;7.50;4.30;;;3.60;94.90;;;;;;5072469;28;20474;-65
2022/04/05 00:24:54;;;;;;;10.50;4.80;;;3.60;94.90;;;;;;5080902;28;20545;-65
2022/04/05 00:27:19;;;;;;;9.10;4.20;;;3.60;95.00;;;;;;5074666;28;20208;-64
2022/04/05 00:29:45;;;;;;;7.80;4.57;;;3.60;94.90;;;;;;5085830;28;20180;-64
2022/04/05 00:32:12;;;;;;;10.70;4.20;;;3.50;94.80;;;;;;5070936;28;20197;-65
2022/04/05 00:34:38;;;;;;;6.40;3.93;;;3.60;94.90;;;;;;5073930;28;20437;-65
2022/04/05 00:37:04;;;;;;;9.37;3.97;;;3.60;94.90;;;;;;5074675;28;20887;-65
2022/04/05 00:39:30;;;;;;;8.60;4.37;;;3.50;94.90;;;;;;5075420;28;20426;-64
2022/04/05 00:41:56;;;;;;;8.57;3.50;;;3.60;94.90;;;;;;5065470;28;20501;-65
2022/04/05 00:44:23;;;;;;;5.93;3.30;;;3.60;95.00;;;;;;5075036;28;20208;-65
2022/04/05 00:46:51;;;;;;;8.07;3.87;;;3.60;95.00;;;;;;5079345;28;20782;-66
2022/04/05 00:49:39;;;;;;;11.10;4.17;;;3.60;94.90;;;;;;5078299;28;20426;-65
2022/04/05 00:52:05;;;;;;;15.03;4.57;;;3.60;94.80;;;;;;5073582;28;20941;-68
2022/04/05 00:54:33;;;;;;;7.87;4.07;;;3.60;94.90;;;;;;5086326;28;20431;-68
2022/04/05 00:56:59;;;;;;;8.43;3.53;;;3.60;94.90;;;;;;5072971;28;20422;-68
2022/04/05 00:59:30;;;;;;;13.20;4.00;;;3.60;94.90;;;;;;5065981;28;20449;-66
2022/04/05 01:01:56;;;;;;;10.53;3.80;;;3.70;94.60;;;;;;5067177;28;20443;-65
2022/04/05 01:04:22;;;;;;;10.10;3.90;;;3.70;94.70;;;;;;5079238;28;20462;-65
2022/04/05 01:06:49;;;;;;;7.20;3.50;;;3.80;94.50;;;;;;5080753;28;20807;-65
2022/04/05 01:09:15;;;;;;;5.87;3.60;;;3.70;94.60;;;;;;5073605;28;20619;-65
2022/04/05 01:11:40;;;;;;;6.37;3.53;;;3.80;94.40;;;;;;5079004;28;20521;-65
2022/04/05 01:14:06;;;;;;;6.10;3.37;;;3.80;94.20;;;;;;5074323;28;20272;-66
2022/04/05 01:16:33;;;;;;;8.60;4.40;;;3.80;94.30;;;;;;5073539;28;20233;-65
2022/04/05 01:18:59;;;;;;;8.27;3.60;;;3.80;94.40;;;;;;5080271;28;20246;-66
2022/04/05 01:21:25;;;;;;;8.53;3.93;;;3.80;94.40;;;;;;5072828;28;20463;-63
2022/04/05 01:24:06;;;;;;;6.97;4.00;;;3.80;94.50;;;;;;5075031;28;21144;-65
2022/04/05 01:26:42;;;;;;;6.50;3.50;;;3.80;94.40;;;;;;5072074;28;20192;-65
2022/04/05 01:29:09;;;;;;;8.37;4.50;;;3.80;94.40;;;;;;5079259;28;20427;-65
2022/04/05 01:31:39;;;;;;;7.60;3.53;;;3.80;94.30;;;;;;5072193;28;20438;-65
2022/04/05 01:34:06;;;;;;;9.80;4.07;;;3.80;94.40;;;;;;5075891;28;20427;-65
2022/04/05 01:36:32;;;;;;;8.80;4.57;;;3.80;94.50;;;;;;5083160;28;20425;-65
2022/04/05 01:38:58;;;;;;;5.20;3.10;;;3.80;94.50;;;;;;5069960;28;20449;-65
2022/04/05 01:41:23;;;;;;;5.50;3.77;;;3.90;94.50;;;;;;5084803;28;20492;-64
2022/04/05 01:43:49;;;;;;;10.77;3.80;;;3.80;95.00;;;;;;5072178;28;20870;-67
2022/04/05 01:46:15;;;;;;;8.83;3.40;;;3.80;94.60;;;;;;5076778;28;20215;-65
2022/04/05 01:48:40;;;;;;;8.20;3.80;;;3.80;94.60;;;;;;5077174;28;20544;-66
2022/04/05 01:51:06;;;;;;;8.43;3.87;;;3.70;95.10;;;;;;5078274;28;20208;-65
2022/04/05 01:53:32;;;;;;;8.43;3.57;;;3.80;94.60;;;;;;5079072;28;20286;-66
2022/04/05 01:55:58;;;;;;;6.63;3.63;;;3.80;94.80;;;;;;5084509;28;20928;-66
2022/04/05 01:58:24;;;;;;;8.20;3.80;;;3.80;94.80;;;;;;5075136;28;20286;-65
2022/04/05 02:00:51;;;;;;;8.93;3.73;;;3.70;94.90;;;;;;5076885;28;20200;-66
2022/04/05 02:03:17;;;;;;;7.40;3.63;;;3.80;94.90;;;;;;5078535;28;20933;-65
2022/04/05 02:05:44;;;;;;;10.93;3.70;;;3.70;95.00;;;;;;5078265;28;20461;-65
2022/04/05 02:08:09;;;;;;;6.47;3.60;;;3.70;94.90;;;;;;5071672;28;20453;-66
2022/04/05 02:10:35;;;;;;;8.20;3.77;;;3.70;94.90;;;;;;5074754;28;20455;-65
2022/04/05 02:13:00;;;;;;;10.00;3.70;;;3.70;94.80;;;;;;5076155;28;20200;-65
2022/04/05 02:15:27;;;;;;;5.57;3.10;;;3.70;95.10;;;;;;5070069;28;20229;-65
2022/04/05 02:17:53;;;;;;;8.03;4.07;;;3.70;94.90;;;;;;5074643;28;20257;-65
2022/04/05 02:20:18;;;;;;;8.20;4.00;;;3.70;95.00;;;;;;5082807;28;20454;-66
2022/04/05 02:22:44;;;;;;;18.17;3.97;;;3.70;95.20;;;;;;5075518;28;20319;-65
2022/04/05 02:25:10;;;;;;;6.37;3.03;;;3.70;95.10;;;;;;5072812;28;20632;-65
2022/04/05 02:27:40;;;;;;;8.77;4.00;;;3.70;95.30;;;;;;5068472;28;20648;-66
2022/04/05 02:30:06;;;;;;;6.30;3.00;;;3.70;95.20;;;;;;5077198;28;20181;-66
2022/04/05 02:32:31;;;;;;;7.07;3.40;;;3.70;95.00;;;;;;5070947;28;20496;-66
2022/04/05 02:34:57;;;;;;;5.80;3.40;;;3.70;94.80;;;;;;5069336;28;20419;-65
2022/04/05 02:37:22;;;;;;;7.93;3.70;;;3.70;95.10;;;;;;5078410;28;20193;-65
2022/04/05 02:39:48;;;;;;;5.47;3.40;;;3.70;95.20;;;;;;5077378;28;20747;-66
2022/04/05 02:42:14;;;;;;;6.50;3.67;;;3.70;95.20;;;;;;5072347;28;20209;-65
2022/04/05 02:44:39;;;;;;;8.70;4.00;;;3.70;95.10;;;;;;5072941;28;20208;-65
2022/04/05 02:47:07;;;;;;;6.70;3.87;;;3.70;95.00;;;;;;5070320;28;20190;-66
2022/04/05 02:49:33;;;;;;;6.37;4.17;;;3.70;95.20;;;;;;5080052;28;20237;-65
2022/04/05 02:51:59;;;;;;;6.43;3.43;;;3.70;95.20;;;;;;5076651;28;21259;-66
2022/04/05 02:54:24;;;;;;;7.00;3.67;;;3.70;94.80;;;;;;5079807;28;20427;-66
2022/04/05 02:56:50;;;;;;;12.23;4.07;;;3.70;94.80;;;;;;5066340;28;20189;-65
2022/04/05 02:59:16;;;;;;;8.73;3.70;;;3.70;94.80;;;;;;5073532;28;20594;-66
2022/04/05 03:01:41;;;;;;;8.30;3.33;;;3.80;94.90;;;;;;5068024;28;20263;-65
2022/04/05 03:04:08;;;;;;;6.67;3.33;;;3.80;94.80;;;;;;5078941;28;20303;-65
2022/04/05 03:06:33;;;;;;;8.53;3.63;;;3.80;94.80;;;;;;5075064;28;20199;-66
2022/04/05 03:09:00;;;;;;;10.17;5.30;;;3.80;94.60;;;;;;5078111;28;20421;-65
2022/04/05 03:11:26;;;;;;;6.40;3.63;;;3.80;94.60;;;;;;5080952;28;20321;-65
2022/04/05 03:13:52;;;;;;;7.37;3.70;;;3.80;94.70;;;;;;5082149;28;20839;-66
2022/04/05 03:16:18;;;;;;;6.03;3.53;;;3.80;94.50;;;;;;5065561;28;20446;-66
2022/04/05 03:18:46;;;;;;;9.70;4.17;;;3.80;94.50;;;;;;5073334;28;20188;-65
2022/04/05 03:21:12;;;;;;;10.33;3.17;;;3.80;94.60;;;;;;5070467;28;20216;-65
2022/04/05 03:23:39;;;;;;;8.13;3.57;;;3.90;94.40;;;;;;5080392;28;20481;-64
2022/04/05 03:26:05;;;;;;;7.30;3.20;;;3.90;94.20;;;;;;5080483;28;20983;-66
2022/04/05 03:28:30;;;;;;;7.87;3.20;;;3.90;94.40;;;;;;5078789;28;20549;-68
2022/04/05 03:30:56;;;;;;;5.87;3.50;;;3.90;94.30;;;;;;5080099;28;20189;-65
2022/04/05 03:33:21;;;;;;;6.50;2.87;;;3.90;94.50;;;;;;5074744;28;20193;-65
2022/04/05 03:35:47;;;;;;;10.93;4.07;;;3.90;94.10;;;;;;5064840;28;20185;-66
2022/04/05 03:38:13;;;;;;;7.97;3.00;;;3.90;94.10;;;;;;5086657;28;20192;-67
2022/04/05 03:40:39;;;;;;;7.33;2.90;;;4.00;94.20;;;;;;5068430;28;20269;-64
2022/04/05 03:43:07;;;;;;;6.60;3.47;;;3.90;94.30;;;;;;5074005;28;20212;-65
2022/04/05 03:45:33;;;;;;;5.57;2.80;;;4.00;94.20;;;;;;5081338;28;20542;-65
2022/04/05 03:47:59;;;;;;;7.10;3.90;;;4.00;94.20;;;;;;5069678;28;20436;-65
2022/04/05 03:50:24;;;;;;;8.03;3.80;;;4.00;94.10;;;;;;5075930;28;20434;-66
2022/04/05 03:52:50;;;;;;;8.20;4.07;;;4.00;93.90;;;;;;5075777;28;20200;-66
2022/04/05 03:55:16;;;;;;;6.53;3.47;;;4.00;94.00;;;;;;5081797;28;20193;-66
2022/04/05 03:57:41;;;;;;;5.77;3.63;;;4.00;94.20;;;;;;5070512;28;20228;-65
2022/04/05 04:00:08;;;;;;;6.13;3.90;;;4.00;94.00;;;;;;5072928;28;20223;-68
2022/04/05 04:02:35;;;;;;;5.67;3.57;;;4.00;94.00;;;;;;5073061;28;20660;-65
2022/04/05 04:05:01;;;;;;;6.00;3.93;;;4.00;93.80;;;;;;5076777;28;20528;-67
2022/04/05 04:07:26;;;;;;;6.50;2.80;;;4.00;94.00;;;;;;5076703;28;20449;-65
2022/04/05 04:09:52;;;;;;;7.23;3.43;;;4.00;93.80;;;;;;5079875;28;20427;-65
2022/04/05 04:12:18;;;;;;;5.20;3.20;;;4.10;94.00;;;;;;5080030;28;20205;-65
2022/04/05 04:14:43;;;;;;;7.93;3.87;;;4.00;93.60;;;;;;5078490;28;20185;-66
2022/04/05 04:17:09;;;;;;;9.93;3.27;;;4.00;93.70;;;;;;5077979;28;20188;-63
2022/04/05 04:19:34;;;;;;;9.07;3.53;;;4.00;93.80;;;;;;5072014;28;20704;-65
2022/04/05 04:22:01;;;;;;;9.90;4.73;;;4.00;93.80;;;;;;5078010;28;20216;-66
2022/04/05 04:24:26;;;;;;;9.47;3.83;;;4.00;93.80;;;;;;5079777;28;20548;-67
2022/04/05 04:26:52;;;;;;;7.27;3.47;;;4.00;93.70;;;;;;5077027;28;20423;-67
2022/04/05 04:29:18;;;;;;;8.27;3.50;;;4.00;94.10;;;;;;5076112;28;20792;-66
2022/04/05 04:31:43;;;;;;;7.03;3.70;;;4.10;94.30;;;;;;5076537;28;20630;-66
2022/04/05 04:34:09;;;;;;;8.17;3.53;;;4.00;94.70;;;;;;5072468;28;20261;-63
2022/04/05 04:36:35;;;;;;;13.40;3.93;;;4.00;95.00;;;;;;5069673;28;21008;-67
2022/04/05 04:39:01;;;;;;;19.10;3.57;;;3.90;94.60;;;;;;5080239;28;20208;-66
2022/04/05 04:41:27;;;;;;;6.13;3.00;;;3.90;94.70;;;;;;5079650;28;20229;-67
2022/04/05 04:43:53;;;;;;;6.40;3.30;;;4.00;94.50;;;;;;5057925;28;20427;-64
2022/04/05 04:46:19;;;;;;;8.97;3.40;;;3.90;94.10;;;;;;5077596;28;20196;-64
2022/04/05 04:48:45;;;;;;;5.70;3.13;;;3.90;94.10;;;;;;5073747;28;20248;-63
2022/04/05 04:51:12;;;;;;;6.87;2.93;;;4.00;94.30;;;;;;5078965;28;20196;-66
2022/04/05 04:53:37;;;;;;;6.60;3.47;;;3.90;94.80;;;;;;5078791;28;20193;-64
2022/04/05 04:56:03;;;;;;;8.13;3.90;;;3.90;95.30;;;;;;5078600;28;20442;-65
2022/04/05 04:58:29;;;;;;;7.10;3.17;;;3.80;95.80;;;;;;5062028;28;20185;-66
2022/04/05 05:00:55;;;;;;;4.73;3.23;;;3.80;95.40;;;;;;5081290;28;20929;-65
2022/04/05 05:03:21;;;;;;;7.80;2.87;;;3.80;95.50;;;;;;5073704;28;20430;-65
2022/04/05 05:05:47;;;;;;;5.77;3.30;;;3.80;95.30;;;;;;5083428;28;20317;-65
2022/04/05 05:08:12;;;;;;;6.13;3.80;;;3.80;95.20;;;;;;5071799;28;20185;-66
2022/04/05 05:10:38;;;;;;;8.60;3.20;;;3.80;95.40;;;;;;5079117;28;20189;-65
2022/04/05 05:13:04;;;;;;;9.67;3.87;;;3.80;95.40;;;;;;5076457;28;20278;-64
2022/04/05 05:15:29;;;;;;;7.60;3.23;;;3.80;95.40;;;;;;5076066;28;20184;-65
2022/04/05 05:17:55;;;;;;;9.63;3.90;;;3.80;95.70;;;;;;5083384;28;20264;-66
2022/04/05 05:20:22;;;;;;;5.63;3.33;;;3.90;95.50;;;;;;5074823;28;20192;-66
2022/04/05 05:22:48;;;;;;;8.63;3.75;;;3.90;95.80;;;;;;5075765;28;20779;-68
2022/04/05 05:25:14;;;;;;;9.63;3.80;;;3.90;95.90;;;;;;5078828;28;20636;-66
2022/04/05 05:27:39;;;;;;;10.37;4.10;;;3.90;96.10;;;;;;5076913;28;20426;-66
2022/04/05 05:30:07;;;;;;;7.37;3.17;;;3.90;96.10;;;;;;5071171;28;20448;-66
2022/04/05 05:32:41;;;;;;;10.47;4.17;;;3.90;96.10;;;;;;5076353;28;20759;-66
2022/04/05 05:35:07;;;;;;;7.07;3.60;;;3.90;96.10;;;;;;5077634;28;20417;-65
2022/04/05 05:37:33;;;;;;;7.20;4.03;;;3.90;96.30;;;;;;5066491;28;20431;-66
2022/04/05 05:39:58;;;;;;;6.83;2.40;;;3.90;96.40;;;;;;5066390;28;20745;-65
2022/04/05 05:42:24;;;;;;;7.17;3.70;;;4.00;96.40;;;;;;5066074;28;20261;-66
2022/04/05 05:44:50;;;;;;;6.47;3.70;;;4.00;96.20;;;;;;5076090;28;20730;-67
2022/04/05 05:47:15;;;;;;;9.63;4.33;;;4.00;96.10;;;;;;5068439;28;20204;-62
2022/04/05 05:49:41;;;;;;;10.87;3.60;;;4.00;96.00;;;;;;5073675;28;20264;-68
2022/04/05 05:52:07;;;;;;;11.63;4.67;;;4.00;95.90;;;;;;5072571;28;20295;-68
2022/04/05 05:54:32;;;;;;;14.00;4.60;;;4.00;96.20;;;;;;5072026;28;20608;-67
2022/04/05 05:56:58;;;;;;;11.53;4.30;;;4.10;96.20;;;;;;5071608;28;20699;-67
2022/04/05 05:59:24;;;;;;;8.33;4.23;;;4.10;96.10;;;;;;5072774;28;20906;-68
2022/04/05 06:01:50;;;;;;;4.87;3.13;;;4.00;96.30;;;;;;5070003;28;20213;-67
2022/04/05 06:04:15;;;;;;;8.53;4.30;;;4.10;96.20;;;;;;5074251;28;20924;-68
2022/04/05 06:06:43;;;;;;;6.77;3.13;;;4.00;96.40;;;;;;5082514;28;20601;-68
2022/04/05 06:09:08;;;;;;;6.40;3.70;;;4.00;96.60;;;;;;5057452;28;20268;-67
2022/04/05 06:11:34;;;;;;;10.20;4.03;;;4.10;96.70;;;;;;5085018;28;20875;-69
2022/04/05 06:13:59;;;;;;;9.83;3.83;;;4.10;96.60;;;;;;5078111;28;20234;-67
2022/04/05 06:16:25;;;;;;;7.33;3.47;;;4.10;96.90;;;;;;5072279;28;20201;-67
2022/04/05 06:18:51;;;;;;;8.50;3.37;;;4.00;96.90;;;;;;5084017;28;20196;-68
2022/04/05 06:21:19;;;;;;;11.50;3.50;;;4.10;97.00;;;;;;5066124;28;20376;-67
2022/04/05 06:23:45;;;;;;;7.30;3.97;;;4.10;97.10;;;;;;5071632;28;20714;-66
2022/04/05 06:26:11;;;;;;;12.17;4.07;;;4.10;97.10;;;;;;5073821;28;20467;-68
2022/04/05 06:28:37;;;;;;;10.73;3.17;;;4.10;97.20;;;;;;5066542;28;20426;-67
2022/04/05 06:31:03;;;;;;;4.70;3.20;;;4.10;97.20;;;;;;5071855;28;20201;-67
2022/04/05 06:33:29;;;;;;;8.00;2.93;;;4.20;97.10;;;;;;5074227;28;20452;-68
2022/04/05 06:35:57;;;;;;;5.60;3.50;;;4.20;96.90;;;;;;5073474;28;20189;-67
2022/04/05 06:38:24;;;;;;;8.60;3.90;;;4.30;96.90;;;;;;5062415;28;20188;-67
2022/04/05 06:40:50;;;;;;;7.50;3.57;;;4.30;97.20;;;;;;5069741;28;20427;-68
2022/04/05 06:43:21;;;;;;;6.37;3.50;;;4.30;97.00;;;;;;5070912;28;21071;-68
2022/04/05 06:45:47;;;;;;;5.17;3.10;;;4.30;97.00;;;;;;5069967;28;20986;-67
2022/04/05 06:48:13;;;;;;;10.30;4.30;;;4.30;96.90;;;;;;5072490;28;20427;-68
2022/04/05 06:50:39;;;;;;;7.67;3.10;;;4.40;96.90;;;;;;5083238;28;20361;-68
2022/04/05 06:53:07;;;;;;;4.77;2.80;;;4.40;96.70;;;;;;5082906;28;20885;-68
2022/04/05 06:55:34;;;;;;;5.10;2.60;;;4.50;96.70;;;;;;5077368;28;20444;-68
2022/04/05 06:58:00;;;;;;;6.70;3.03;;;4.50;96.50;;;;;;5079594;28;20432;-68
2022/04/05 07:00:26;;;;;;;12.07;4.53;;;4.60;96.50;;;;;;5079954;28;20559;-68
2022/04/05 07:02:53;;;;;;;5.97;2.80;;;4.60;96.40;;;;;;5079349;28;20578;-68
2022/04/05 07:05:19;;;;;;;9.03;3.67;;;4.60;96.60;;;;;;5077371;28;20796;-67
2022/04/05 07:07:45;;;;;;;5.93;2.77;;;4.70;96.40;;;;;;5078843;28;20418;-67
2022/04/05 07:10:14;;;;;;;4.60;3.37;;;4.80;96.30;;;;;;5069371;28;20759;-68
2022/04/05 07:12:41;;;;;;;8.83;3.40;;;4.80;96.10;;;;;;5082007;28;20284;-67
2022/04/05 07:15:07;;;;;;;6.73;2.90;;;4.80;96.10;;;;;;5069035;28;20929;-68
2022/04/05 07:17:33;;;;;;;5.27;2.97;;;4.90;96.10;;;;;;5069324;28;20430;-67
2022/04/05 07:19:59;;;;;;;5.57;2.80;;;4.90;96.00;;;;;;5069546;28;20419;-67
2022/04/05 07:22:26;;;;;;;6.77;2.77;;;5.00;95.90;;;;;;5073214;28;20558;-66
2022/04/05 07:24:52;;;;;;;7.20;2.97;;;5.10;95.60;;;;;;5078224;28;20303;-68
2022/04/05 07:27:18;;;;;;;8.60;3.77;;;5.30;95.60;;;;;;5080805;28;20846;-66
2022/04/05 07:29:43;;;;;;;8.43;4.43;;;5.20;95.70;;;;;;5074204;28;20509;-68
2022/04/05 07:32:09;;;;;;;6.80;3.30;;;5.30;95.60;;;;;;5081410;28;20216;-67
2022/04/05 07:34:35;;;;;;;5.80;3.30;;;5.40;95.70;;;;;;5084600;28;20188;-68
2022/04/05 07:37:00;;;;;;;5.27;2.53;;;5.50;95.70;;;;;;5076850;28;20250;-67
2022/04/05 07:39:26;;;;;;;6.67;3.30;;;5.50;95.40;;;;;;5078362;28;20184;-67
2022/04/05 07:41:52;;;;;;;7.23;2.97;;;5.60;95.40;;;;;;5087841;28;20281;-68
2022/04/05 07:44:18;;;;;;;3.70;2.27;;;5.70;95.80;;;;;;5076881;28;20208;-65
2022/04/05 07:46:45;;;;;;;6.57;3.20;;;5.80;95.70;;;;;;5077037;28;20414;-68
2022/04/05 07:49:11;;;;;;;6.93;3.03;;;5.80;95.60;;;;;;5078022;28;20922;-67
2022/04/05 07:51:36;;;;;;;5.00;2.60;;;5.90;95.20;;;;;;5079048;28;20457;-68
2022/04/05 07:54:03;;;;;;;4.87;3.30;;;6.20;95.00;;;;;;5080338;28;20172;-68
2022/04/05 07:56:29;;;;;;;5.63;2.37;;;6.40;94.30;;;;;;5077581;28;20188;-68
2022/04/05 07:58:55;;;;;;;5.00;2.80;;;6.50;94.50;;;;;;5069705;28;20898;-68
2022/04/05 08:01:21;;;;;;;5.67;2.93;;;6.40;94.30;;;;;;5075663;28;20201;-67
2022/04/05 08:03:46;;;;;;;7.67;3.20;;;6.30;94.40;;;;;;5071236;28;20178;-68
2022/04/05 08:06:12;;;;;;;7.70;3.07;;;6.30;94.60;;;;;;5066434;28;20215;-68
2022/04/05 08:08:38;;;;;;;6.80;2.70;;;6.30;94.60;;;;;;5066225;28;20189;-67
2022/04/05 08:11:03;;;;;;;5.57;2.60;;;6.30;95.00;;;;;;5072812;28;20263;-66
2022/04/05 08:13:29;;;;;;;5.50;2.87;;;6.40;94.70;;;;;;5069341;28;20181;-68
2022/04/05 08:15:55;;;;;;;9.23;3.30;;;6.40;94.90;;;;;;5071377;28;20243;-68
2022/04/05 08:18:21;;;;;;;4.87;3.00;;;6.50;95.00;;;;;;5069977;28;20188;-67
2022/04/05 08:20:47;;;;;;;7.10;3.10;;;6.60;95.30;;;;;;5068455;28;20449;-67
2022/04/05 08:23:14;;;;;;;3.83;2.23;;;6.70;94.60;;;;;;5070179;28;20497;-67
2022/04/05 08:25:40;;;;;;;8.60;2.87;;;6.80;94.70;;;;;;5069314;28;20519;-68
2022/04/05 08:28:06;;;;;;;7.17;2.90;;;6.70;94.90;;;;;;5075254;28;20875;-67
2022/04/05 08:30:32;;;;;;;6.77;3.03;;;6.80;95.10;;;;;;5074711;28;20415;-67
2022/04/05 08:32:58;;;;;;;4.27;2.20;;;6.80;94.40;;;;;;5078480;28;20870;-67
2022/04/05 08:35:24;;;;;;;5.80;2.33;;;6.90;94.50;;;;;;5058039;28;20274;-68
2022/04/05 08:37:52;;;;;;;6.33;3.40;;;6.90;94.10;;;;;;5077835;28;20779;-67
2022/04/05 08:40:20;;;;;;;7.00;3.10;;;6.80;94.30;;;;;;5074366;28;20509;-68
2022/04/05 08:42:48;;;;;;;4.90;2.03;;;6.80;94.40;;;;;;5061332;28;20532;-68
2022/04/05 08:45:16;;;;;;;6.20;2.77;;;6.70;94.60;;;;;;5081436;28;20564;-68
2022/04/05 08:47:47;;;;;;;5.90;2.90;;;6.80;94.40;;;;;;5077736;28;20424;-68
2022/04/05 08:50:18;;;;;;;7.17;2.90;;;6.70;94.70;;;;;;5082587;28;20487;-68
2022/04/05 08:52:45;;;;;;;8.87;3.50;;;6.70;94.70;;;;;;5084546;28;20545;-66
2022/04/05 08:55:12;;;;;;;6.13;2.57;;;6.60;94.90;;;;;;5072611;28;20415;-65
2022/04/05 08:57:38;;;;;;;7.73;2.40;;;6.80;94.60;;;;;;5065901;28;20461;-65
2022/04/05 09:00:07;;;;;;;5.80;2.57;;;6.90;94.50;;;;;;5065383;28;20419;-64
2022/04/05 09:02:32;;;;;;;4.20;2.40;;;6.90;94.20;;;;;;5084274;28;20443;-67
2022/04/05 09:04:59;;;;;;;6.10;3.03;;;6.80;94.30;;;;;;5084081;28;20469;-68
2022/04/05 09:07:37;;;;;;;6.80;2.77;;;6.90;94.30;;;;;;5067211;28;20180;-67
2022/04/05 09:10:16;;;;;;;7.87;2.80;;;6.90;94.30;;;;;;5067277;28;21261;-68
2022/04/05 09:12:49;;;;;;;5.27;3.17;;;7.00;94.40;;;;;;5071545;28;20435;-68
2022/04/05 09:15:20;;;;;;;5.70;2.73;;;7.10;94.40;;;;;;5069989;28;20456;-68
2022/04/05 09:17:47;;;;;;;6.27;3.20;;;7.10;94.30;;;;;;5067177;28;20422;-68
2022/04/05 09:20:16;;;;;;;4.23;2.63;;;7.10;94.20;;;;;;5072661;28;20449;-68
2022/04/05 09:22:41;;;;;;;5.20;2.63;;;7.10;94.40;;;;;;5071617;28;21036;-66
2022/04/05 09:25:12;;;;;;;9.90;3.60;;;7.20;94.70;;;;;;5078044;28;20549;-68
2022/04/05 09:28:05;;;;;;;5.10;2.80;;;7.40;94.10;;;;;;5068147;28;20185;-67
2022/04/05 09:30:31;;;;;;;6.97;3.30;;;7.30;94.20;;;;;;5075232;28;20418;-68
2022/04/05 09:32:58;;;;;;;3.40;2.00;;;7.30;94.40;;;;;;5084580;28;20782;-68
2022/04/05 09:35:29;;;;;;;11.60;3.00;;;7.20;94.60;;;;;;5078703;28;20422;-67
2022/04/05 09:38:17;;;;;;;5.93;2.83;;;7.10;94.60;;;;;;5077924;28;20475;-68
2022/04/05 09:40:44;;;;;;;4.20;2.00;;;6.90;94.90;;;;;;5071496;28;21271;-67
2022/04/05 09:43:14;;;;;;;4.17;2.40;;;6.90;95.00;;;;;;5078717;28;20521;-68
2022/04/05 09:45:58;;;;;;;6.73;2.67;;;6.80;95.20;;;;;;5070670;28;20955;-68
2022/04/05 09:48:26;;;;;;;5.07;2.97;;;6.90;95.50;;;;;;5069755;28;20434;-68
2022/04/05 09:51:19;;;;;;;3.90;2.07;;;7.00;95.50;;;;;;5058434;28;20431;-68
2022/04/05 09:53:50;;;;;;;3.97;2.37;;;7.10;96.10;;;;;;5069264;28;20427;-68
2022/04/05 09:56:16;;;;;;;6.53;3.07;;;7.20;95.30;;;;;;5077787;28;20423;-67
2022/04/05 09:58:48;;;;;;;5.17;2.13;;;7.40;95.30;;;;;;5071983;28;20560;-67
2022/04/05 10:01:15;;;;;;;4.57;2.30;;;7.50;95.10;;;;;;5072068;28;20196;-67
2022/04/05 10:03:42;;;;;;;3.40;2.30;;;7.50;94.80;;;;;;5071935;28;20427;-67
2022/04/05 10:06:09;;;;;;;4.27;2.20;;;7.60;94.90;;;;;;5075289;28;20455;-66
2022/04/05 10:08:36;;;;;;;7.13;2.77;;;7.70;94.90;;;;;;5079527;28;20513;-67
2022/04/05 10:11:03;;;;;;;8.87;2.90;;;7.80;94.90;;;;;;5073154;28;20450;-68
2022/04/05 10:13:30;;;;;;;6.30;2.27;;;7.80;95.10;;;;;;5079120;28;21223;-68
2022/04/05 10:15:57;;;;;;;5.13;3.03;;;7.90;95.20;;;;;;5073256;28;20433;-68
2022/04/05 10:18:24;;;;;;;8.40;3.30;;;7.90;94.80;;;;;;5076808;28;20426;-65
2022/04/05 10:20:51;;;;;;;9.10;2.87;;;8.00;95.40;;;;;;5077836;28;20854;-68
2022/04/05 10:23:22;;;;;;;7.10;3.53;;;8.10;95.20;;;;;;5069045;28;20477;-69
2022/04/05 10:25:51;;;;;;;5.20;1.90;;;8.10;95.20;;;;;;5084970;28;20470;-68
2022/04/05 10:28:22;;;;;;;8.20;3.90;;;7.90;95.50;;;;;;5079561;28;20987;-68
2022/04/05 10:31:29;;;;;;;4.90;2.33;;;8.20;95.40;;;;;;5062681;28;20810;-69
2022/04/05 10:34:00;;;;;;;7.70;2.83;;;8.20;96.00;;;;;;5079686;28;20429;-67
2022/04/05 10:36:26;;;;;;;6.50;2.70;;;8.30;96.00;;;;;;5085231;28;20448;-67
2022/04/05 10:39:18;;;;;;;3.97;2.23;;;8.30;95.80;;;;;;5083665;28;20438;-68
2022/04/05 10:42:04;;;;;;;5.43;2.00;;;8.30;95.90;;;;;;5081445;28;20439;-68
2022/04/05 10:44:30;;;;;;;4.40;2.10;;;8.40;96.00;;;;;;5068648;28;20467;-68
2022/04/05 10:47:00;;;;;;;3.93;2.03;;;8.40;96.30;;;;;;5066271;28;20435;-69
2022/04/05 10:49:54;;;;;;;3.50;2.13;;;8.30;96.70;;;;;;5075794;28;20201;-68
2022/04/05 10:52:32;;;;;;;5.13;2.60;;;8.30;96.50;;;;;;5084378;28;20454;-69
2022/04/05 10:55:01;;;;;;;6.00;2.77;;;8.20;96.70;;;;;;5087797;28;21274;-68
2022/04/05 10:57:34;;;;;;;10.53;3.57;;;8.20;97.20;;;;;;5073799;28;20421;-68
2022/04/05 11:00:14;;;;;;;2.53;1.53;;;8.30;96.80;;;;;;5069338;28;20422;-69
2022/04/05 11:02:53;;;;;;;5.07;2.20;;;8.40;97.50;;;;;;5085601;28;20544;-68
2022/04/05 11:05:19;;;;;;;4.80;2.03;;;8.50;96.90;;;;;;5078552;28;20466;-69
2022/04/05 11:07:53;;;;;;;4.50;2.77;;;8.30;97.00;;;;;;5079115;28;20500;-69
2022/04/05 11:10:26;;;;;;;7.20;2.77;;;8.00;96.70;;;;;;5070798;28;20219;-68
2022/04/05 11:13:07;;;;;;;6.33;2.60;;;8.00;96.40;;;;;;5077188;28;20441;-67
2022/04/05 11:15:45;;;;;;;7.90;2.37;;;8.00;96.40;;;;;;5074324;28;20513;-68
2022/04/05 11:18:16;;;;;;;5.80;2.83;;;8.10;96.50;;;;;;5076954;28;20430;-66
2022/04/05 11:20:42;;;;;;;4.17;2.30;;;8.00;96.50;;;;;;5073456;28;20492;-65
2022/04/05 11:23:10;;;;;;;5.53;2.53;;;7.90;96.80;;;;;;5076066;28;20423;-68
2022/04/05 11:25:36;;;;;;;4.67;2.57;;;8.00;96.90;;;;;;5077396;28;20512;-68
2022/04/05 11:28:21;;;;;;;7.93;2.83;;;8.00;97.00;;;;;;5069234;28;20431;-67
2022/04/05 11:31:02;;;;;;;4.23;2.77;;;7.80;97.00;;;;;;5080228;28;20177;-67
2022/04/05 11:33:31;;;;;;;8.73;2.83;;;7.70;97.30;;;;;;5082104;28;20857;-69
2022/04/05 11:35:58;;;;;;;4.80;2.57;;;7.70;97.40;;;;;;5077858;28;21063;-66
2022/04/05 11:38:25;;;;;;;7.20;3.97;;;7.80;97.50;;;;;;5068027;28;20448;-66
2022/04/05 11:40:54;;;;;;;5.50;2.50;;;7.90;97.30;;;;;;5069770;28;20556;-65
2022/04/05 11:43:27;;;;;;;8.00;3.33;;;7.80;97.50;;;;;;5068250;28;20458;-67
2022/04/05 11:45:54;;;;;;;5.57;2.77;;;7.80;97.60;;;;;;5069669;28;20559;-68
2022/04/05 11:48:22;;;;;;;11.00;3.67;;;7.90;97.50;;;;;;5071396;28;20430;-67
2022/04/05 11:50:49;;;;;;;18.13;2.30;;;7.80;97.60;;;;;;5076024;28;20418;-67
2022/04/05 11:53:25;;;;;;;6.90;3.40;;;7.80;97.80;;;;;;5075071;28;20464;-67
2022/04/05 11:56:09;;;;;;;7.20;3.17;;;7.90;97.80;;;;;;5074490;28;20422;-68
2022/04/05 11:58:38;;;;;;;9.57;2.70;;;7.90;97.50;;;;;;5073377;28;20823;-66
2022/04/05 12:01:06;;;;;;;9.03;3.03;;;7.90;97.70;;;;;;5073127;28;20530;-67
2022/04/05 12:03:49;;;;;;;6.13;3.40;;;7.90;97.00;;;;;;5073463;28;20952;-67
2022/04/05 12:06:20;;;;;;;10.00;3.40;;;8.00;97.50;;;;;;5078444;28;20488;-67
2022/04/05 12:08:47;;;;;;;7.10;3.87;;;8.00;97.20;;;;;;5077332;28;20492;-69
2022/04/05 12:11:16;;;;;;;4.10;2.57;;;8.00;97.40;;;;;;5076098;28;20431;-67
2022/04/05 12:13:53;;;;;;;8.97;2.90;;;8.10;97.40;;;;;;5077919;28;20419;-68
2022/04/05 12:16:20;;;;;;;4.70;2.83;;;8.20;97.20;;;;;;5071565;28;20434;-67
2022/04/05 12:18:46;;;;;;;4.37;2.50;;;8.20;97.50;;;;;;5075601;28;20457;-67
2022/04/05 12:21:11;;;;;;;4.70;2.63;;;8.20;97.60;;;;;;5075109;28;20459;-66
2022/04/05 12:23:40;;;;;;;4.17;2.60;;;8.20;97.50;;;;;;5075930;28;20415;-66
2022/04/05 12:26:09;;;;;;;5.63;2.70;;;8.30;97.80;;;;;;5075308;28;20208;-68
2022/04/05 12:28:45;;;;;;;5.47;2.70;;;8.20;97.90;;;;;;5075029;28;20414;-67
2022/04/05 12:31:17;;;;;;;12.03;3.80;;;8.20;97.90;;;;;;5075378;28;20440;-67
2022/04/05 12:34:00;;;;;;;5.67;3.30;;;8.10;98.20;;;;;;5074861;28;20411;-67
2022/04/05 12:36:32;;;;;;;7.40;2.93;;;8.20;98.00;;;;;;5079543;28;20435;-67
2022/04/05 12:38:58;;;;;;;7.00;2.87;;;8.30;98.60;;;;;;5075837;28;20441;-67
2022/04/05 12:41:24;;;;;;;4.43;2.10;;;8.40;98.10;;;;;;5076025;28;20439;-67
2022/04/05 12:44:09;;;;;;;6.90;2.77;;;8.40;98.20;;;;;;5076800;28;20224;-67
2022/04/05 12:46:37;;;;;;;5.53;2.70;;;8.50;98.10;;;;;;5077357;28;20963;-67
2022/04/05 12:49:24;;;;;;;6.63;2.23;;;8.70;97.90;;;;;;5077280;28;20513;-67
2022/04/05 12:51:52;;;;;;;3.53;2.13;;;8.70;97.90;;;;;;5074981;28;20467;-67
2022/04/05 12:54:51;;;;;;;4.73;2.53;;;8.80;97.70;;;;;;5073135;28;20420;-66
2022/04/05 12:57:30;;;;;;;6.65;3.00;;;8.90;97.70;;;;;;5055455;28;20569;-68
2022/04/05 13:00:14;;;;;;;6.63;2.97;;;8.70;97.90;;;;;;5078889;28;20334;-66